createdAt,value
2022-09-25T00:00:43.383Z,12.30
2022-09-25T00:03:14.916Z,12.40
2022-09-25T00:05:43.231Z,12.40
2022-09-25T00:08:10.590Z,12.60
2022-09-25T00:11:23.992Z,12.60
2022-09-25T00:13:51.272Z,12.30
2022-09-25T00:16:20.900Z,12.00
2022-09-25T00:19:06.278Z,11.90
2022-09-25T00:21:34.774Z,12.10
2022-09-25T00:24:05.119Z,12.20
2022-09-25T00:26:35.907Z,12.10
2022-09-25T00:29:04.106Z,12.10
2022-09-25T00:31:31.790Z,12.10
2022-09-25T00:34:01.474Z,12.10
2022-09-25T00:36:29.682Z,12.00
2022-09-25T00:38:56.539Z,12.10
2022-09-25T00:41:25.948Z,11.90
2022-09-25T00:43:56.267Z,11.80
2022-09-25T00:46:32.701Z,12.00
2022-09-25T00:48:59.592Z,12.00
2022-09-25T00:51:34.791Z,11.90
2022-09-25T00:54:05.269Z,12.10
2022-09-25T00:56:40.521Z,12.10
2022-09-25T00:59:12.919Z,12.20
2022-09-25T01:01:40.271Z,12.10
2022-09-25T01:04:08.994Z,12.10
2022-09-25T01:06:36.162Z,11.80
2022-09-25T01:09:03.008Z,11.70
2022-09-25T01:11:31.064Z,11.70
2022-09-25T01:14:00.896Z,11.90
2022-09-25T01:16:56.001Z,12.00
2022-09-25T01:20:07.931Z,11.80
2022-09-25T01:22:40.728Z,11.60
2022-09-25T01:25:28.356Z,11.60
2022-09-25T01:28:14.255Z,11.40
2022-09-25T01:30:46.035Z,11.50
2022-09-25T01:33:15.391Z,11.30
2022-09-25T01:36:03.302Z,11.50
2022-09-25T01:38:38.502Z,11.50
2022-09-25T01:41:17.315Z,11.70
2022-09-25T01:43:50.288Z,11.70
2022-09-25T01:46:27.059Z,11.80
2022-09-25T01:49:14.290Z,11.80
2022-09-25T01:51:49.777Z,11.80
2022-09-25T01:54:33.437Z,11.80
2022-09-25T01:57:26.898Z,11.80
2022-09-25T02:00:00.328Z,11.90
2022-09-25T02:02:33.878Z,12.00
2022-09-25T02:05:46.055Z,12.00
2022-09-25T02:08:30.097Z,12.10
2022-09-25T02:11:02.380Z,12.10
2022-09-25T02:13:53.548Z,11.90
2022-09-25T02:16:27.729Z,11.80
2022-09-25T02:19:13.396Z,11.90
2022-09-25T02:21:54.285Z,11.80
2022-09-25T02:24:39.586Z,11.90
2022-09-25T02:27:06.577Z,12.00
2022-09-25T02:29:33.587Z,11.90
2022-09-25T02:32:08.495Z,11.90
2022-09-25T02:34:36.403Z,11.90
2022-09-25T02:37:03.877Z,11.90
2022-09-25T02:39:31.357Z,11.90
2022-09-25T02:42:32.175Z,11.90
2022-09-25T02:45:22.810Z,11.80
2022-09-25T02:47:58.557Z,11.80
2022-09-25T02:50:45.727Z,11.60
2022-09-25T02:53:16.679Z,11.70
2022-09-25T02:56:17.126Z,11.90
2022-09-25T02:58:51.274Z,12.00
2022-09-25T03:01:20.465Z,11.80
2022-09-25T03:03:49.953Z,11.60
2022-09-25T03:06:17.247Z,11.80
2022-09-25T03:08:53.029Z,11.80
2022-09-25T03:11:21.430Z,11.70
2022-09-25T03:13:57.284Z,11.70
2022-09-25T03:16:27.128Z,11.80
2022-09-25T03:18:54.035Z,11.90
2022-09-25T03:21:20.906Z,11.90
2022-09-25T03:23:47.660Z,12.00
2022-09-25T03:26:14.502Z,11.90
2022-09-25T03:28:41.379Z,11.70
2022-09-25T03:31:11.467Z,11.60
2022-09-25T03:33:40.475Z,11.60
2022-09-25T03:36:19.403Z,11.60
2022-09-25T03:38:48.320Z,11.50
2022-09-25T03:41:20.143Z,11.50
2022-09-25T03:43:51.542Z,11.60
2022-09-25T03:46:21.566Z,11.60
2022-09-25T03:48:49.210Z,11.50
2022-09-25T03:51:16.379Z,11.50
2022-09-25T03:53:43.232Z,11.50
2022-09-25T03:56:13.262Z,11.50
2022-09-25T03:58:40.554Z,11.50
2022-09-25T04:01:07.706Z,11.60
2022-09-25T04:03:34.961Z,11.70
2022-09-25T04:06:04.832Z,11.80
2022-09-25T04:08:33.094Z,11.70
2022-09-25T04:11:00.701Z,11.70
2022-09-25T04:13:33.754Z,11.60
2022-09-25T04:16:01.915Z,11.50
2022-09-25T04:18:31.618Z,11.60
2022-09-25T04:21:04.283Z,11.50
2022-09-25T04:23:32.150Z,11.50
2022-09-25T04:25:58.982Z,11.40
2022-09-25T04:28:26.475Z,11.40
2022-09-25T04:30:53.896Z,11.40
2022-09-25T04:33:39.238Z,11.40
2022-09-25T04:36:06.545Z,11.40
2022-09-25T04:38:33.497Z,11.30
2022-09-25T04:41:01.655Z,11.10
2022-09-25T04:43:32.697Z,11.00
2022-09-25T04:46:08.501Z,11.20
2022-09-25T04:48:35.960Z,11.20
2022-09-25T04:51:05.584Z,11.10
2022-09-25T04:53:35.539Z,11.10
2022-09-25T04:56:05.410Z,11.10
2022-09-25T04:58:32.385Z,11.10
2022-09-25T05:01:05.125Z,11.30
2022-09-25T05:03:32.038Z,11.40
2022-09-25T05:05:59.861Z,11.50
2022-09-25T05:08:27.685Z,11.50
2022-09-25T05:10:54.793Z,11.40
2022-09-25T05:13:21.663Z,11.30
2022-09-25T05:15:48.571Z,11.30
2022-09-25T05:18:23.469Z,11.20
2022-09-25T05:20:51.197Z,11.30
2022-09-25T05:23:18.268Z,11.20
2022-09-25T05:25:51.857Z,11.30
2022-09-25T05:28:18.762Z,11.20
2022-09-25T05:30:45.586Z,11.10
2022-09-25T05:33:12.397Z,10.90
2022-09-25T05:35:39.140Z,10.80
2022-09-25T05:38:06.734Z,10.90
2022-09-25T05:40:33.764Z,10.90
2022-09-25T05:43:02.503Z,10.80
2022-09-25T05:45:29.266Z,10.70
2022-09-25T05:48:04.388Z,10.80
2022-09-25T05:50:34.571Z,10.80
2022-09-25T05:53:03.766Z,10.70
2022-09-25T05:55:31.173Z,10.90
2022-09-25T05:58:02.898Z,10.90
2022-09-25T06:00:32.789Z,10.70
2022-09-25T06:03:03.010Z,10.70
2022-09-25T06:05:30.461Z,10.60
2022-09-25T06:07:57.362Z,10.70
2022-09-25T06:10:27.613Z,10.80
2022-09-25T06:12:59.093Z,10.90
2022-09-25T06:15:27.778Z,11.00
2022-09-25T06:17:56.259Z,11.00
2022-09-25T06:20:23.509Z,11.00
2022-09-25T06:22:57.945Z,11.10
2022-09-25T06:25:26.558Z,11.20
2022-09-25T06:27:54.506Z,11.30
2022-09-25T06:30:23.306Z,11.40
2022-09-25T06:32:59.863Z,11.40
2022-09-25T06:35:28.009Z,11.40
2022-09-25T06:38:01.908Z,11.40
2022-09-25T06:40:31.265Z,11.40
2022-09-25T06:42:59.295Z,11.40
2022-09-25T06:45:29.489Z,11.50
2022-09-25T06:48:12.667Z,11.50
2022-09-25T06:50:55.087Z,11.60
2022-09-25T06:53:23.821Z,11.60
2022-09-25T06:55:51.124Z,11.70
2022-09-25T06:58:20.872Z,11.80
2022-09-25T07:00:49.924Z,11.80
2022-09-25T07:03:35.751Z,11.80
2022-09-25T07:06:04.213Z,11.80
2022-09-25T07:08:31.106Z,11.80
2022-09-25T07:10:59.280Z,11.90
2022-09-25T07:13:29.884Z,11.90
2022-09-25T07:15:59.195Z,12.00
2022-09-25T07:18:27.637Z,12.00
2022-09-25T07:20:59.540Z,12.10
2022-09-25T07:23:26.344Z,12.10
2022-09-25T07:25:53.188Z,12.10
2022-09-25T07:28:20.248Z,12.20
2022-09-25T07:30:48.589Z,12.20
2022-09-25T07:33:16.382Z,12.20
2022-09-25T07:35:43.302Z,12.20
2022-09-25T07:38:10.235Z,12.20
2022-09-25T07:40:37.189Z,12.20
2022-09-25T07:43:07.497Z,12.20
2022-09-25T07:45:34.493Z,12.20
2022-09-25T07:48:03.399Z,12.20
2022-09-25T07:50:31.569Z,12.30
2022-09-25T07:52:58.713Z,12.30
2022-09-25T07:55:28.254Z,12.30
2022-09-25T07:57:58.339Z,12.40
2022-09-25T08:00:25.414Z,12.40
2022-09-25T08:02:59.457Z,12.40
2022-09-25T08:05:27.267Z,12.40
2022-09-25T08:07:54.838Z,12.30
2022-09-25T08:10:22.374Z,12.20
2022-09-25T08:12:49.790Z,12.20
2022-09-25T08:15:17.129Z,12.20
2022-09-25T08:17:43.909Z,12.10
2022-09-25T08:20:10.900Z,12.10
2022-09-25T08:22:37.772Z,12.10
2022-09-25T08:25:04.900Z,12.10
2022-09-25T08:27:32.132Z,12.00
2022-09-25T08:29:59.041Z,12.10
2022-09-25T08:32:25.879Z,12.20
2022-09-25T08:34:52.996Z,12.30
2022-09-25T08:37:21.002Z,12.30
2022-09-25T08:39:47.822Z,12.30
2022-09-25T08:42:30.093Z,12.20
2022-09-25T08:45:22.390Z,12.30
2022-09-25T08:48:11.467Z,12.30
2022-09-25T08:50:38.511Z,12.30
2022-09-25T08:53:16.596Z,12.40
2022-09-25T08:56:01.893Z,12.40
2022-09-25T08:58:34.322Z,12.40
2022-09-25T09:01:07.499Z,12.50
2022-09-25T09:03:48.736Z,12.60
2022-09-25T09:06:17.437Z,12.60
2022-09-25T09:08:53.875Z,12.60
2022-09-25T09:11:30.533Z,12.70
2022-09-25T09:14:07.560Z,12.80
2022-09-25T09:16:41.417Z,12.80
2022-09-25T09:19:11.501Z,12.80
2022-09-25T09:22:00.849Z,12.70
2022-09-25T09:25:02.514Z,12.80
2022-09-25T09:27:47.339Z,12.60
2022-09-25T09:30:19.272Z,12.70
2022-09-25T09:32:50.473Z,12.80
2022-09-25T09:35:45.187Z,12.80
2022-09-25T09:38:31.704Z,12.90
2022-09-25T09:41:16.925Z,12.80
2022-09-25T09:44:06.144Z,12.80
2022-09-25T09:47:03.785Z,13.00
2022-09-25T09:49:36.786Z,13.00
2022-09-25T09:52:24.384Z,13.10
2022-09-25T09:55:39.172Z,13.30
2022-09-25T09:58:15.289Z,13.60
2022-09-25T10:00:42.760Z,13.60
2022-09-25T10:03:29.197Z,13.50
2022-09-25T10:06:05.885Z,13.50
2022-09-25T10:08:32.772Z,13.60
2022-09-25T10:10:59.958Z,13.60
2022-09-25T10:13:37.088Z,13.60
2022-09-25T10:16:11.931Z,13.60
2022-09-25T10:18:42.619Z,13.80
2022-09-25T10:21:21.468Z,14.00
2022-09-25T10:23:49.421Z,14.20
2022-09-25T10:26:22.271Z,14.40
2022-09-25T10:28:49.105Z,14.40
2022-09-25T10:31:17.692Z,14.10
2022-09-25T10:34:04.402Z,14.30
2022-09-25T10:36:38.575Z,14.30
2022-09-25T10:39:42.772Z,14.30
2022-09-25T10:42:41.006Z,14.30
2022-09-25T10:45:23.098Z,14.40
2022-09-25T10:48:09.524Z,14.50
2022-09-25T10:50:39.386Z,14.50
2022-09-25T10:53:07.645Z,14.70
2022-09-25T10:55:46.427Z,14.60
2022-09-25T10:58:18.565Z,14.80
2022-09-25T11:00:54.461Z,14.80
2022-09-25T11:03:59.826Z,14.60
2022-09-25T11:06:29.321Z,14.50
2022-09-25T11:09:19.877Z,14.60
2022-09-25T11:11:49.402Z,14.80
2022-09-25T11:14:28.654Z,14.70
2022-09-25T11:16:57.961Z,14.60
2022-09-25T11:19:36.813Z,14.40
2022-09-25T11:22:19.466Z,14.70
2022-09-25T11:25:23.449Z,14.60
2022-09-25T11:27:54.160Z,14.60
2022-09-25T11:30:22.955Z,14.50
2022-09-25T11:33:08.477Z,14.60
2022-09-25T11:35:54.529Z,14.70
2022-09-25T11:39:09.516Z,14.70
2022-09-25T11:41:50.462Z,15.00
2022-09-25T11:44:39.246Z,14.80
2022-09-25T11:47:19.537Z,14.60
2022-09-25T11:49:53.155Z,14.60
2022-09-25T11:52:28.795Z,14.60
2022-09-25T11:55:14.898Z,14.60
2022-09-25T11:57:52.795Z,14.50
2022-09-25T12:00:30.018Z,14.70
2022-09-25T12:03:42.048Z,15.00
2022-09-25T12:06:55.148Z,14.90
2022-09-25T12:09:53.607Z,14.90
2022-09-25T12:12:49.442Z,15.20
2022-09-25T12:15:30.162Z,15.60
2022-09-25T12:18:14.787Z,15.60
2022-09-25T12:20:52.685Z,15.50
2022-09-25T12:23:32.637Z,15.50
2022-09-25T12:25:59.908Z,15.50
2022-09-25T12:28:39.985Z,15.80
2022-09-25T12:31:23.592Z,16.30
2022-09-25T12:34:00.275Z,16.70
2022-09-25T12:36:36.693Z,17.10
2022-09-25T12:39:25.654Z,17.30
2022-09-25T12:42:07.444Z,16.70
2022-09-25T12:44:47.442Z,16.90
2022-09-25T12:47:24.607Z,16.70
2022-09-25T12:50:03.017Z,16.30
2022-09-25T12:52:38.790Z,16.00
2022-09-25T12:55:34.168Z,15.80
2022-09-25T12:58:48.035Z,15.70
2022-09-25T13:01:30.375Z,15.70
2022-09-25T13:04:12.340Z,15.70
2022-09-25T13:06:58.228Z,15.90
2022-09-25T13:09:46.456Z,16.10
2022-09-25T13:12:22.198Z,16.30
2022-09-25T13:15:01.163Z,16.70
2022-09-25T13:17:28.241Z,17.20
2022-09-25T13:20:15.148Z,17.30
2022-09-25T13:22:42.180Z,17.00
2022-09-25T13:25:16.596Z,16.90
2022-09-25T13:27:46.211Z,16.60
2022-09-25T13:30:25.328Z,16.30
2022-09-25T13:32:54.640Z,16.30
2022-09-25T13:35:23.594Z,16.30
2022-09-25T13:37:56.483Z,15.90
2022-09-25T13:40:45.188Z,15.80
2022-09-25T13:43:20.733Z,15.80
2022-09-25T13:45:48.936Z,15.70
2022-09-25T13:48:31.022Z,15.80
2022-09-25T13:51:22.808Z,16.10
2022-09-25T13:54:25.796Z,16.30
2022-09-25T13:56:55.355Z,16.60
2022-09-25T13:59:35.029Z,16.70
2022-09-25T14:02:37.362Z,16.70
2022-09-25T14:05:05.996Z,16.60
2022-09-25T14:07:33.836Z,16.50
2022-09-25T14:10:02.072Z,16.40
2022-09-25T14:12:48.121Z,16.10
2022-09-25T14:15:26.804Z,16.00
2022-09-25T14:17:56.820Z,16.10
2022-09-25T14:20:31.582Z,16.50
2022-09-25T14:23:04.564Z,16.40
2022-09-25T14:25:36.155Z,16.80
2022-09-25T14:28:24.637Z,16.80
2022-09-25T14:31:26.851Z,16.80
2022-09-25T14:34:17.780Z,16.60
2022-09-25T14:37:04.180Z,16.40
2022-09-25T14:39:44.942Z,16.10
2022-09-25T14:42:46.332Z,16.10
2022-09-25T14:45:28.101Z,16.10
2022-09-25T14:47:59.800Z,16.00
2022-09-25T14:50:30.641Z,15.90
2022-09-25T14:53:08.156Z,15.80
2022-09-25T14:55:46.300Z,15.80
2022-09-25T14:58:18.276Z,15.90
2022-09-25T15:00:47.901Z,15.90
2022-09-25T15:03:19.126Z,15.90
2022-09-25T15:05:48.289Z,15.80
2022-09-25T15:08:38.663Z,15.80
2022-09-25T15:11:11.674Z,15.80
2022-09-25T15:13:38.737Z,15.80
2022-09-25T15:16:28.247Z,15.90
2022-09-25T15:18:59.130Z,15.90
2022-09-25T15:21:32.346Z,15.80
2022-09-25T15:24:10.758Z,15.70
2022-09-25T15:26:48.337Z,15.50
2022-09-25T15:29:23.762Z,15.30
2022-09-25T15:31:51.597Z,15.20
2022-09-25T15:34:30.113Z,14.90
2022-09-25T15:37:29.585Z,14.80
2022-09-25T15:40:00.694Z,14.60
2022-09-25T15:42:27.634Z,14.30
2022-09-25T15:44:57.914Z,14.10
2022-09-25T15:47:37.050Z,13.90
2022-09-25T15:50:08.834Z,13.80
2022-09-25T15:52:35.877Z,13.70
2022-09-25T15:55:09.803Z,13.70
2022-09-25T15:57:36.800Z,13.60
2022-09-25T16:00:34.845Z,13.50
2022-09-25T16:03:28.986Z,13.50
2022-09-25T16:05:57.162Z,13.40
2022-09-25T16:08:32.602Z,13.20
2022-09-25T16:11:09.256Z,13.20
2022-09-25T16:13:40.952Z,13.20
2022-09-25T16:16:30.684Z,13.30
2022-09-25T16:19:26.771Z,13.30
2022-09-25T16:21:54.538Z,13.30
2022-09-25T16:24:29.387Z,13.30
2022-09-25T16:27:02.708Z,13.20
2022-09-25T16:29:36.531Z,13.10
2022-09-25T16:32:06.664Z,13.10
2022-09-25T16:34:37.351Z,13.10
2022-09-25T16:37:14.716Z,13.00
2022-09-25T16:39:41.623Z,13.00
2022-09-25T16:42:28.030Z,13.00
2022-09-25T16:45:14.788Z,12.90
2022-09-25T16:47:46.814Z,12.70
2022-09-25T16:50:16.373Z,12.80
2022-09-25T16:52:44.170Z,12.90
2022-09-25T16:55:30.237Z,13.10
2022-09-25T16:57:58.924Z,13.10
2022-09-25T17:00:28.610Z,13.00
2022-09-25T17:02:56.020Z,12.90
2022-09-25T17:05:28.402Z,13.00
2022-09-25T17:08:01.440Z,13.10
2022-09-25T17:10:31.785Z,13.20
2022-09-25T17:13:02.365Z,13.20
2022-09-25T17:15:33.789Z,13.20
2022-09-25T17:18:02.223Z,13.00
2022-09-25T17:20:34.045Z,13.20
2022-09-25T17:23:00.903Z,13.10
2022-09-25T17:25:40.817Z,13.00
2022-09-25T17:28:09.645Z,12.80
2022-09-25T17:30:37.610Z,13.10
2022-09-25T17:33:05.545Z,13.20
2022-09-25T17:35:53.330Z,13.10
2022-09-25T17:38:20.392Z,13.20
2022-09-25T17:40:52.295Z,13.30
2022-09-25T17:43:19.664Z,13.20
2022-09-25T17:45:55.598Z,13.10
2022-09-25T17:48:24.853Z,13.00
2022-09-25T17:50:56.317Z,13.00
2022-09-25T17:53:27.821Z,12.90
2022-09-25T17:55:55.553Z,13.10
2022-09-25T17:58:23.776Z,13.10
2022-09-25T18:00:54.742Z,13.20
2022-09-25T18:03:24.535Z,13.20
2022-09-25T18:05:51.733Z,13.00
2022-09-25T18:08:18.902Z,13.10
2022-09-25T18:10:46.005Z,13.10
2022-09-25T18:13:17.000Z,13.00
2022-09-25T18:15:50.414Z,13.00
2022-09-25T18:18:17.541Z,13.00
2022-09-25T18:21:08.351Z,13.00
2022-09-25T18:23:38.402Z,13.00
2022-09-25T18:26:08.230Z,12.90
2022-09-25T18:28:35.069Z,12.80
2022-09-25T18:31:02.036Z,12.90
2022-09-25T18:33:28.879Z,12.90
2022-09-25T18:35:55.697Z,12.80
2022-09-25T18:38:22.614Z,12.90
2022-09-25T18:40:49.449Z,12.80
2022-09-25T18:43:16.320Z,12.70
2022-09-25T18:45:51.096Z,12.80
2022-09-25T18:48:18.101Z,12.80
2022-09-25T18:50:49.163Z,12.90
2022-09-25T18:53:17.236Z,12.80
2022-09-25T18:55:44.068Z,12.70
2022-09-25T18:58:11.622Z,12.70
2022-09-25T19:00:39.925Z,12.70
2022-09-25T19:03:07.124Z,12.70
2022-09-25T19:05:34.113Z,12.60
2022-09-25T19:08:04.911Z,12.50
2022-09-25T19:10:34.628Z,12.50
2022-09-25T19:13:01.440Z,12.50
2022-09-25T19:15:29.349Z,12.60
2022-09-25T19:17:57.543Z,12.60
2022-09-25T19:20:25.306Z,12.70
2022-09-25T19:22:52.348Z,12.70
2022-09-25T19:25:22.505Z,12.60
2022-09-25T19:27:49.800Z,12.70
2022-09-25T19:30:16.680Z,12.70
2022-09-25T19:32:43.704Z,12.70
2022-09-25T19:35:11.282Z,12.80
2022-09-25T19:37:41.283Z,12.80
2022-09-25T19:40:27.171Z,12.70
2022-09-25T19:42:54.015Z,12.60
2022-09-25T19:45:21.148Z,12.70
2022-09-25T19:47:48.426Z,12.70
2022-09-25T19:50:15.357Z,12.80
2022-09-25T19:52:42.207Z,12.70
2022-09-25T19:55:09.077Z,12.70
2022-09-25T19:57:36.579Z,12.70
2022-09-25T20:00:05.403Z,12.70
2022-09-25T20:02:32.403Z,12.70
2022-09-25T20:05:00.074Z,12.80
2022-09-25T20:07:27.028Z,12.70
2022-09-25T20:09:53.895Z,12.80
2022-09-25T20:12:20.689Z,12.80
2022-09-25T20:14:48.209Z,12.80
2022-09-25T20:17:15.067Z,12.80
2022-09-25T20:19:41.831Z,12.80
2022-09-25T20:22:08.720Z,12.80
2022-09-25T20:24:35.482Z,12.60
2022-09-25T20:27:02.294Z,12.70
2022-09-25T20:29:29.182Z,12.70
2022-09-25T20:31:56.043Z,12.70
2022-09-25T20:34:22.915Z,12.70
2022-09-25T20:36:49.884Z,12.70
2022-09-25T20:39:20.957Z,12.70
2022-09-25T20:41:49.217Z,12.60
2022-09-25T20:44:16.100Z,12.60
2022-09-25T20:46:43.093Z,12.50
2022-09-25T20:49:11.143Z,12.60
2022-09-25T20:51:38.371Z,12.60
2022-09-25T20:54:09.889Z,12.60
2022-09-25T20:56:38.184Z,12.60
2022-09-25T20:59:05.669Z,12.60
2022-09-25T21:01:36.480Z,12.60
2022-09-25T21:04:05.770Z,12.50
2022-09-25T21:06:34.985Z,12.60
2022-09-25T21:09:05.673Z,12.70
2022-09-25T21:11:33.677Z,12.60
2022-09-25T21:14:02.738Z,12.60
2022-09-25T21:16:32.233Z,12.70
2022-09-25T21:19:01.656Z,12.70
2022-09-25T21:21:29.137Z,12.70
2022-09-25T21:23:57.377Z,12.80
2022-09-25T21:26:27.317Z,12.60
2022-09-25T21:28:55.728Z,12.60
2022-09-25T21:31:24.931Z,12.60
2022-09-25T21:33:53.327Z,12.50
2022-09-25T21:36:21.344Z,12.50
2022-09-25T21:38:49.344Z,12.50
2022-09-25T21:41:21.706Z,12.50
2022-09-25T21:43:48.890Z,12.50
2022-09-25T21:46:18.507Z,12.50
2022-09-25T21:48:51.159Z,12.40
2022-09-25T21:51:19.059Z,12.40
2022-09-25T21:53:46.049Z,12.40
2022-09-25T21:56:15.676Z,12.40
2022-09-25T21:58:42.921Z,12.40
2022-09-25T22:01:16.117Z,12.30
2022-09-25T22:03:48.148Z,12.40
2022-09-25T22:06:18.390Z,12.30
2022-09-25T22:08:47.878Z,12.30
2022-09-25T22:11:14.868Z,12.30
2022-09-25T22:13:43.451Z,12.30
2022-09-25T22:16:16.842Z,12.30
2022-09-25T22:18:54.407Z,12.30
2022-09-25T22:21:24.691Z,12.30
2022-09-25T22:23:51.688Z,12.30
2022-09-25T22:26:19.629Z,12.30
2022-09-25T22:28:47.062Z,12.30
2022-09-25T22:31:23.005Z,12.30
2022-09-25T22:34:00.167Z,12.30
2022-09-25T22:36:28.096Z,12.30
2022-09-25T22:38:55.428Z,12.30
2022-09-25T22:41:22.695Z,12.30
2022-09-25T22:43:51.338Z,12.30
2022-09-25T22:46:19.211Z,12.30
2022-09-25T22:48:46.120Z,12.30
2022-09-25T22:51:19.314Z,12.30
2022-09-25T22:53:46.736Z,12.30
2022-09-25T22:56:16.871Z,12.20
2022-09-25T22:58:49.732Z,12.30
2022-09-25T23:01:39.036Z,12.20
2022-09-25T23:04:08.332Z,12.30
2022-09-25T23:06:35.439Z,12.30
2022-09-25T23:09:05.925Z,12.30
2022-09-25T23:11:33.287Z,12.40
2022-09-25T23:14:02.963Z,12.40
2022-09-25T23:16:32.471Z,12.30
2022-09-25T23:19:00.149Z,12.40
2022-09-25T23:21:28.384Z,12.40
2022-09-25T23:24:00.255Z,12.30
2022-09-25T23:26:27.998Z,12.20
2022-09-25T23:28:54.819Z,12.20
2022-09-25T23:31:23.071Z,12.20
2022-09-25T23:33:49.952Z,12.20
2022-09-25T23:36:20.204Z,12.20
2022-09-25T23:38:48.355Z,12.10
2022-09-25T23:41:20.081Z,12.20
2022-09-25T23:43:48.264Z,12.10
2022-09-25T23:46:16.623Z,12.10
2022-09-25T23:48:44.505Z,12.10
2022-09-25T23:51:12.962Z,12.00
2022-09-25T23:53:40.896Z,12.00
2022-09-25T23:56:12.777Z,11.80
2022-09-25T23:58:40.396Z,11.90
